Time;durP1;ratioP1;P1;durP2;ratioP2;P2;SDS_P1;SDS_P2;PMS_P1;PMS_P2;Temp;Humidity;BMP_temperature;BMP_pressure;BME280_temperature;BME280_humidity;BME280_pressure;Samples;Min_cycle;Max_cycle;Signal;HPM_P1;HPM_P2
2021/04/22 00:09:11;;;;;;;50.20;27.45;;;3.00;99.90;;;;;;21074773;28;20039;-44
2021/04/22 00:19:13;;;;;;;45.55;25.67;;;2.60;99.90;;;;;;21044876;28;20052;-43
2021/04/22 00:29:15;;;;;;;50.53;27.77;;;2.30;99.90;;;;;;21040513;28;20073;-43
2021/04/22 00:39:17;;;;;;;47.13;25.95;;;2.10;99.90;;;;;;21055166;28;20477;-42
2021/04/22 00:49:19;;;;;;;44.40;25.52;;;1.90;99.90;;;;;;21072728;28;20044;-43
2021/04/22 00:59:21;;;;;;;48.92;26.50;;;1.90;99.90;;;;;;21072690;28;20350;-43
2021/04/22 01:09:22;;;;;;;53.47;29.30;;;1.70;99.90;;;;;;21072267;28;20432;-42
2021/04/22 01:19:24;;;;;;;58.78;29.70;;;1.70;99.90;;;;;;21050726;28;20052;-45
2021/04/22 01:29:26;;;;;;;51.40;27.40;;;1.80;99.90;;;;;;21003523;28;20478;-44
2021/04/22 01:39:28;;;;;;;62.33;31.42;;;1.70;99.90;;;;;;21002777;28;20040;-42
2021/04/22 01:49:30;;;;;;;56.78;28.77;;;1.50;99.90;;;;;;21001930;28;20363;-42
2021/04/22 01:59:33;;;;;;;59.25;29.77;;;1.50;99.90;;;;;;21001168;28;20547;-43
2021/04/22 02:09:35;;;;;;;60.00;30.63;;;1.30;99.90;;;;;;21001736;28;20037;-42
2021/04/22 02:19:37;;;;;;;64.28;32.05;;;1.20;99.90;;;;;;21032610;28;20048;-42
2021/04/22 02:29:39;;;;;;;57.15;29.23;;;1.10;99.90;;;;;;21082682;28;20052;-43
2021/04/22 02:39:41;;;;;;;57.47;28.75;;;1.10;99.90;;;;;;21082125;28;20487;-44
2021/04/22 02:49:43;;;;;;;56.72;28.40;;;1.10;99.90;;;;;;21063009;28;20036;-42
2021/04/22 02:59:45;;;;;;;54.47;27.83;;;1.00;99.90;;;;;;21080454;28;20081;-45
2021/04/22 03:09:47;;;;;;;65.68;32.97;;;1.00;99.90;;;;;;21079521;28;20043;-45
2021/04/22 03:19:48;;;;;;;65.47;31.35;;;0.90;99.90;;;;;;21044471;28;20044;-42
2021/04/22 03:29:50;;;;;;;61.95;31.20;;;0.90;99.90;;;;;;20994304;28;20120;-44
2021/04/22 03:39:52;;;;;;;59.25;29.45;;;1.00;99.90;;;;;;20992860;28;20032;-43
2021/04/22 03:49:54;;;;;;;58.42;28.65;;;1.10;99.90;;;;;;20992506;28;20036;-43
2021/04/22 03:59:55;;;;;;;51.03;27.15;;;1.10;99.90;;;;;;20991895;28;20036;-42
2021/04/22 04:09:57;;;;;;;43.60;24.15;;;1.20;99.90;;;;;;20991028;28;20041;-43
2021/04/22 04:20:00;;;;;;;39.22;22.60;;;1.20;99.90;;;;;;21026605;28;20052;-46
2021/04/22 04:30:06;;;;;;;42.25;24.15;;;1.30;99.90;;;;;;21012765;28;20036;-43
2021/04/22 04:40:13;;;;;;;38.10;22.58;;;1.30;99.90;;;;;;20989740;28;20102;-44
2021/04/22 04:50:16;;;;;;;37.08;21.80;;;1.40;99.90;;;;;;20994403;28;20504;-44
2021/04/22 05:00:19;;;;;;;37.38;21.15;;;1.60;99.90;;;;;;21006135;28;20036;-43
2021/04/22 05:10:21;;;;;;;40.58;22.88;;;1.50;99.90;;;;;;21005532;28;20048;-43
2021/04/22 05:20:23;;;;;;;41.70;24.42;;;1.60;99.90;;;;;;21043835;28;20076;-46
2021/04/22 05:30:25;;;;;;;42.08;23.75;;;1.70;99.90;;;;;;21069399;28;20040;-43
2021/04/22 05:40:27;;;;;;;41.45;22.65;;;1.80;99.90;;;;;;21086771;28;20032;-46
2021/04/22 05:50:28;;;;;;;39.45;22.85;;;2.10;99.90;;;;;;21086177;28;20473;-43
2021/04/22 06:00:30;;;;;;;39.33;22.48;;;2.30;99.90;;;;;;21000576;28;20400;-43
2021/04/22 06:10:32;;;;;;;32.08;20.23;;;2.80;99.90;;;;;;21006855;28;20036;-43
2021/04/22 06:20:34;;;;;;;35.47;20.50;;;3.30;99.90;;;;;;21042924;28;20044;-43
2021/04/22 06:30:36;;;;;;;30.60;18.60;;;4.10;99.90;;;;;;20999251;28;20513;-44
2021/04/22 06:40:39;;;;;;;25.85;17.70;;;5.60;99.90;;;;;;20998500;28;20040;-46
2021/04/22 06:50:41;;;;;;;20.25;15.43;;;9.20;99.90;;;;;;20997719;28;20033;-45
2021/04/22 07:00:43;;;;;;;19.98;15.60;;;10.90;99.90;;;;;;20996769;28;20090;-45
2021/04/22 07:10:45;;;;;;;20.30;16.08;;;12.00;99.90;;;;;;20995593;28;20071;-49
2021/04/22 07:20:47;;;;;;;20.73;16.88;;;12.90;99.90;;;;;;20995143;28;20436;-46
2021/04/22 07:30:49;;;;;;;20.13;16.23;;;13.60;97.90;;;;;;20994301;28;20062;-45
2021/04/22 07:40:53;;;;;;;18.10;14.95;;;13.50;97.30;;;;;;20975667;28;20032;-51
2021/04/22 07:50:55;;;;;;;19.17;15.90;;;14.00;98.90;;;;;;20992731;28;20037;-46
2021/04/22 08:00:58;;;;;;;16.73;14.35;;;15.10;96.40;;;;;;20991089;28;20090;-46
2021/04/22 08:11:01;;;;;;;18.35;14.70;;;15.30;96.10;;;;;;20991369;28;20643;-45
2021/04/22 08:21:04;;;;;;;16.00;13.82;;;15.80;92.90;;;;;;21035500;28;20036;-48
2021/04/22 08:31:13;;;;;;;18.65;15.23;;;15.80;92.50;;;;;;21003915;28;20040;-46
2021/04/22 08:41:16;;;;;;;17.58;14.55;;;15.80;93.90;;;;;;20991051;28;20052;-45
2021/04/22 08:51:18;;;;;;;18.70;15.05;;;16.30;91.80;;;;;;20990651;28;20036;-45
2021/04/22 09:01:21;;;;;;;21.25;16.20;;;15.40;90.60;;;;;;20989291;28;20044;-45
2021/04/22 09:11:26;;;;;;;19.42;15.73;;;14.00;92.00;;;;;;20988688;28;20094;-44
2021/04/22 09:21:31;;;;;;;19.30;16.00;;;13.30;93.40;;;;;;21018489;28;20037;-44
2021/04/22 09:31:33;;;;;;;19.15;16.08;;;13.50;96.30;;;;;;21071376;28;20116;-45
2021/04/22 09:41:35;;;;;;;23.02;17.13;;;14.30;94.00;;;;;;21083079;28;20089;-44
2021/04/22 09:51:38;;;;;;;26.13;18.52;;;14.20;95.10;;;;;;21086295;28;20043;-48
2021/04/22 10:01:40;;;;;;;26.05;20.33;;;13.70;95.60;;;;;;21085266;28;20366;-46
2021/04/22 10:11:49;;;;;;;28.38;22.27;;;13.30;97.40;;;;;;21084347;28;20052;-44
2021/04/22 10:21:51;;;;;;;30.60;24.38;;;12.60;98.80;;;;;;21032224;28;20040;-49
2021/04/22 10:31:58;;;;;;;36.35;25.73;;;11.40;99.90;;;;;;20998948;28;20515;-44
2021/04/22 10:42:00;;;;;;;34.83;25.60;;;10.50;99.90;;;;;;20998406;28;20036;-44
2021/04/22 10:52:03;;;;;;;36.78;25.60;;;9.80;99.90;;;;;;20996453;28;20044;-44
2021/04/22 11:02:17;;;;;;;35.05;25.80;;;9.50;99.90;;;;;;20996865;28;20467;-44
2021/04/22 11:12:29;;;;;;;35.33;25.73;;;9.80;99.90;;;;;;20996245;28;20048;-43
2021/04/22 11:22:32;;;;;;;37.00;25.95;;;10.30;99.90;;;;;;20995587;28;20036;-44
2021/04/22 11:32:35;;;;;;;38.95;27.15;;;10.30;99.90;;;;;;20994374;28;20036;-44
2021/04/22 11:42:39;;;;;;;31.90;24.08;;;10.20;99.90;;;;;;20993712;28;20075;-49
2021/04/22 11:52:56;;;;;;;32.63;24.30;;;10.70;99.90;;;;;;20992787;28;20040;-44
2021/04/22 12:02:59;;;;;;;33.97;23.60;;;11.10;99.90;;;;;;20973651;28;20028;-44
2021/04/22 12:13:14;;;;;;;33.85;25.13;;;12.00;99.90;;;;;;20973466;28;20440;-44
2021/04/22 12:23:27;;;;;;;32.42;24.35;;;12.70;99.90;;;;;;21049328;28;20086;-44
2021/04/22 12:33:30;;;;;;;31.77;23.98;;;12.10;99.90;;;;;;20990493;28;20078;-49
2021/04/22 12:43:34;;;;;;;32.22;23.67;;;11.90;99.90;;;;;;20989688;28;20032;-44
2021/04/22 12:53:46;;;;;;;27.50;22.08;;;12.70;99.90;;;;;;20989298;28;20036;-44
2021/04/22 13:03:54;;;;;;;31.70;24.52;;;13.40;99.90;;;;;;20989315;28;20033;-48
2021/04/22 13:14:03;;;;;;;32.60;24.48;;;12.80;99.90;;;;;;20997315;28;20453;-44
2021/04/22 13:24:14;;;;;;;34.23;25.23;;;12.00;99.90;;;;;;21075039;28;20040;-44
2021/04/22 13:34:19;;;;;;;31.98;23.98;;;11.60;99.90;;;;;;21087781;28;20366;-45
2021/04/22 13:44:24;;;;;;;29.02;23.40;;;12.00;99.90;;;;;;21086808;28;20039;-47
2021/04/22 13:54:32;;;;;;;31.75;24.95;;;12.90;99.90;;;;;;21085865;28;20062;-44
2021/04/22 14:04:34;;;;;;;32.03;24.90;;;13.30;99.90;;;;;;21086349;28;20032;-46
2021/04/22 14:14:38;;;;;;;28.38;22.77;;;13.10;99.90;;;;;;21083981;28;20048;-44
2021/04/22 14:24:40;;;;;;;28.88;22.40;;;14.00;99.90;;;;;;21008381;28;20436;-44
2021/04/22 14:34:42;;;;;;;29.65;24.45;;;14.00;99.90;;;;;;20999089;28;20501;-47
2021/04/22 14:44:44;;;;;;;31.52;23.30;;;14.00;99.90;;;;;;20998035;28;20036;-45
2021/04/22 14:54:46;;;;;;;27.50;22.55;;;14.60;99.70;;;;;;20997525;28;20037;-45
2021/04/22 15:04:48;;;;;;;26.65;22.33;;;15.30;97.90;;;;;;20996649;28;20037;-47
2021/04/22 15:14:50;;;;;;;24.42;20.10;;;14.40;97.90;;;;;;20996478;28;20040;-45
2021/04/22 15:24:52;;;;;;;26.13;21.25;;;14.10;99.00;;;;;;20994956;28;20090;-45
2021/04/22 15:34:54;;;;;;;23.80;19.70;;;13.70;97.90;;;;;;20993912;28;20032;-48
2021/04/22 15:44:57;;;;;;;27.92;21.80;;;12.40;99.30;;;;;;20995080;28;20351;-44
2021/04/22 15:54:59;;;;;;;29.77;21.90;;;10.90;99.90;;;;;;20992686;28;20028;-44
2021/04/22 16:05:04;;;;;;;27.42;20.65;;;10.00;99.90;;;;;;20991934;28;20040;-46
2021/04/22 16:15:08;;;;;;;30.27;21.73;;;10.20;99.90;;;;;;20973123;28;20049;-45
2021/04/22 16:25:13;;;;;;;29.23;21.75;;;9.70;99.90;;;;;;21049580;28;20078;-44
2021/04/22 16:35:17;;;;;;;36.28;24.10;;;9.10;99.90;;;;;;20990404;28;20041;-50
2021/04/22 16:45:21;;;;;;;31.55;23.13;;;8.60;99.90;;;;;;20989728;28;20094;-46
2021/04/22 16:55:24;;;;;;;34.65;24.00;;;8.20;99.90;;;;;;20989523;28;20422;-43
2021/04/22 17:05:26;;;;;;;34.55;22.73;;;7.70;99.90;;;;;;20989092;28;20040;-48
2021/04/22 17:15:29;;;;;;;35.25;23.75;;;7.10;99.90;;;;;;20988808;28;20057;-44
2021/04/22 17:25:31;;;;;;;40.53;25.52;;;6.80;99.90;;;;;;21070214;28;20447;-45
2021/04/22 17:35:33;;;;;;;35.90;24.70;;;6.20;99.90;;;;;;21071403;28;20054;-43
2021/04/22 17:45:35;;;;;;;38.67;25.13;;;5.80;99.90;;;;;;21070899;28;20058;-44
2021/04/22 17:55:37;;;;;;;45.80;27.52;;;5.50;99.90;;;;;;21071285;28;20375;-44
2021/04/22 18:05:39;;;;;;;41.17;26.30;;;5.20;99.90;;;;;;21085151;28;20057;-44
2021/04/22 18:15:42;;;;;;;42.65;26.70;;;5.00;99.90;;;;;;21084482;28;20056;-46
2021/04/22 18:25:44;;;;;;;42.30;27.33;;;4.90;99.90;;;;;;20999725;28;20078;-44
2021/04/22 18:35:46;;;;;;;48.55;30.13;;;4.70;99.90;;;;;;20999094;28;20075;-43
2021/04/22 18:45:49;;;;;;;41.58;28.27;;;5.00;99.90;;;;;;20998381;28;20090;-45
2021/04/22 18:55:51;;;;;;;43.85;28.35;;;5.60;99.90;;;;;;20997738;28;20287;-46
2021/04/22 19:05:55;;;;;;;39.92;27.45;;;6.00;99.90;;;;;;20996792;28;20036;-43
2021/04/22 19:15:58;;;;;;;38.00;25.95;;;6.20;99.90;;;;;;20979017;28;20482;-44
2021/04/22 19:26:00;;;;;;;40.13;27.35;;;6.30;99.90;;;;;;21078702;28;20044;-43
2021/04/22 19:36:07;;;;;;;38.55;26.83;;;6.20;99.90;;;;;;21079887;28;20485;-44
2021/04/22 19:46:10;;;;;;;40.90;26.40;;;6.20;99.90;;;;;;21077333;28;20100;-44
2021/04/22 19:56:13;;;;;;;38.25;26.23;;;6.10;99.90;;;;;;21076624;28;20039;-44
2021/04/22 20:06:21;;;;;;;38.40;25.73;;;6.30;99.90;;;;;;21076154;28;20385;-43
2021/04/22 20:16:24;;;;;;;34.75;24.83;;;6.40;99.90;;;;;;21069528;28;20090;-43
2021/04/22 20:26:37;;;;;;;34.33;24.23;;;6.60;99.90;;;;;;20989865;28;20040;-43
2021/04/22 20:36:38;;;;;;;38.17;24.58;;;6.80;99.90;;;;;;20995894;28;20382;-43
2021/04/22 20:46:41;;;;;;;41.55;27.50;;;6.90;99.90;;;;;;21072365;28;20108;-43
2021/04/22 20:56:50;;;;;;;35.95;25.00;;;6.70;99.90;;;;;;21074333;28;20081;-45
2021/04/22 21:06:51;;;;;;;39.58;25.30;;;6.20;99.90;;;;;;21072511;28;20032;-44
2021/04/22 21:16:59;;;;;;;47.20;29.65;;;5.50;99.90;;;;;;21061525;28;20086;-43
2021/04/22 21:27:04;;;;;;;48.08;29.92;;;4.80;99.90;;;;;;20988232;28;20062;-43
2021/04/22 21:37:08;;;;;;;51.28;31.25;;;4.20;99.90;;;;;;21000200;28;20029;-44
2021/04/22 21:47:26;;;;;;;69.22;39.97;;;3.80;99.90;;;;;;21002982;28;20093;-45
2021/04/22 21:57:29;;;;;;;59.83;34.00;;;3.40;99.90;;;;;;21049141;28;20405;-44
2021/04/22 22:07:30;;;;;;;52.28;30.92;;;3.40;99.90;;;;;;21085125;28;20367;-43
2021/04/22 22:17:39;;;;;;;56.45;33.78;;;3.60;99.90;;;;;;21068224;28;20126;-47
2021/04/22 22:27:43;;;;;;;61.53;35.47;;;3.40;99.90;;;;;;21000016;28;20086;-43
2021/04/22 22:37:45;;;;;;;61.75;35.13;;;3.20;99.90;;;;;;20999204;28;20040;-43
2021/04/22 22:47:47;;;;;;;64.53;37.47;;;3.00;99.90;;;;;;20980317;28;20036;-43
2021/04/22 22:57:54;;;;;;;65.13;36.20;;;3.00;99.90;;;;;;20997611;28;20036;-45
2021/04/22 23:07:57;;;;;;;67.10;38.75;;;3.10;99.90;;;;;;20997923;28;20098;-43
2021/04/22 23:17:59;;;;;;;71.68;38.70;;;3.10;99.90;;;;;;21014753;28;20125;-44
2021/04/22 23:28:01;;;;;;;76.80;41.30;;;2.90;99.90;;;;;;21080028;28;20534;-48
2021/04/22 23:38:06;;;;;;;79.43;45.80;;;2.80;99.90;;;;;;21079495;28;20181;-42
2021/04/22 23:48:09;;;;;;;81.45;42.65;;;2.60;99.90;;;;;;21077705;28;20093;-43
2021/04/22 23:58:11;;;;;;;81.38;42.08;;;2.60;99.90;;;;;;21057824;28;20032;-44
